Latest Coastal Weather Observations for Orbost

IDV60701

Issued at 2:12 am EDT Tuesday 24 October 2017 (issued every 10 minutes, with the page automatically refreshed every 10 minutes)

About coastal observations | Map of coastal stations | Coastal observations for VIC | Marine services | Other Formats
Station Details ID: 084145 Name: ORBOST Lat: -37.69 Lon: 148.47 Height: 62.65 m
Data from the previous 72 hours. | See also: Recent months at Orbost
Date/Time
EDT
Temp
°C
Wind Pressure Rain since
9am
mm
Weather Cloud Vis
km
Sea
Height
m
Swell
Dir  Spd
kts
Gust
kts
hPa Trend Height
m
Period
s
Dir
24/02:00am 11.4 NE 2 3 1017.4 - 0.0 - - - - - - -
24/01:30am 11.6 ENE 2 3 1017.5 - 0.0 - - - - - - -
24/01:00am 12.1 NE 2 3 1017.9 - 0.0 - - - - - - -
24/12:30am 12.4 NNE 2 3 1018.3 - 0.0 - - - - - - -
24/12:00am 13.3 N 2 2 1018.6 - 0.0 - - - - - - -
 
Date/Time
EDT
Temp
°C
Wind Pressure Rain since
9am
mm
Weather Cloud Vis
km
Sea
Height
m
Swell
Dir  Spd
kts
Gust
kts
hPa Trend Height
m
Period
s
Dir
23/11:30pm 13.4 N 1 2 1018.7 - 0.0 - - - - - - -
23/11:00pm 13.4 N 1 1 1018.9 - 0.0 - - - - - - -
23/10:30pm 13.2 N 2 2 1019.1 - 0.0 - - - - - - -
23/10:00pm 13.4 N 2 3 1019.0 - 0.0 - - - - - - -
23/09:30pm 13.4 CALM 0 0 1019.1 - 0.0 - - - - - - -
23/09:00pm 13.2 NNW 1 1 1019.0 - 0.0 - - - - - - -
23/08:30pm 13.1 SSW 2 3 1018.7 - 0.0 - - - - - - -
23/08:00pm 12.9 SSW 2 2 1018.4 - 0.0 - - - - - - -
23/07:30pm - S 2 4 1017.9 - 0.0 - - - - - - -
23/07:00pm - S 3 5 1017.4 - 0.0 - - - - - - -
23/06:30pm 14.7 S 3 6 1017.2 - 0.0 - - - - - - -
23/06:00pm 15.2 S 4 7 1016.9 - 0.0 - - - - - - -
23/05:30pm 15.4 SSE 6 9 1016.7 - 0.0 - - - - - - -
23/05:00pm 16.2 S 6 9 1016.5 - 0.0 - - - - - - -
23/04:30pm 16.1 S 7 9 1016.4 - 0.0 - - - - - - -
23/04:00pm 16.1 SSE 6 11 1016.3 - 0.0 - - - - - - -
23/03:30pm 16.4 SSE 6 11 1016.4 - 0.0 - - - - - - -
23/03:00pm 16.8 SSE 5 9 1016.3 - 0.0 - - - - - - -
23/02:30pm 16.8 SSE 6 11 1016.5 - 0.0 - - - - - - -
23/02:00pm 17.0 SSE 7 10 1016.6 - 0.0 - - - - - - -
23/01:30pm 17.1 S 7 11 1016.8 - 0.0 - - - - - - -
23/01:00pm 17.8 SE 5 10 1016.9 - 0.0 - - - - - - -
23/12:30pm 18.4 SSW 4 8 1017.3 - 0.0 - - - - - - -
23/12:00pm 18.1 NNW 3 4 1017.6 - 0.0 - - - - - - -
23/11:30am 16.9 WSW 4 9 1018.1 - 0.0 - - - - - - -
23/11:00am 15.9 W 5 8 1018.4 - 0.0 - - - - - - -
23/10:30am 14.8 WNW 6 8 1018.6 - 0.0 - - - - - - -
23/10:00am 14.7 W 6 8 1018.6 - 0.0 - - - - - - -
23/09:30am 14.2 W 8 11 1018.9 - 0.0 - - - - - - -
23/09:00am 13.9 W 7 10 1018.8 - 1.0 - - - - - - -
23/08:30am 13.3 W 6 10 1018.7 - 1.0 - - - - - - -
23/08:00am 12.9 WNW 6 10 1018.5 - 1.0 - - - - - - -
23/07:30am 12.5 WNW 4 6 1018.2 - 1.0 - - - - - - -
23/07:00am 12.4 WNW 4 7 1017.9 - 1.0 - - - - - - -
23/06:30am 12.3 WNW 4 7 1017.7 - 1.0 - - - - - - -
23/06:00am 12.4 WNW 5 9 1017.3 - 1.0 - - - - - - -
23/05:30am 12.4 WNW 5 9 1017.3 - 1.0 - - - - - - -
23/05:00am 12.5 WNW 4 9 1017.2 - 1.0 - - - - - - -
23/04:30am 12.4 NW 3 6 1017.2 - 1.0 - - - - - - -
23/04:00am 12.4 NW 3 6 1017.2 - 1.0 - - - - - - -
23/03:30am 12.3 WNW 3 4 1017.3 - 1.0 - - - - - - -
23/03:00am 12.4 W 5 9 1017.4 - 1.0 - - - - - - -
23/02:30am 12.5 WNW 4 7 1017.5 - 1.0 - - - - - - -
23/02:00am 12.6 WNW 6 11 1017.6 - 1.0 - - - - - - -
23/01:30am 12.7 WNW 4 7 1017.6 - 1.0 - - - - - - -
23/01:00am 12.3 N 4 6 1017.9 - 1.0 - - - - - - -
23/12:30am 12.3 CALM 0 0 1018.1 - 1.0 - - - - - - -
23/12:00am 12.5 WNW 1 2 1018.1 - 1.0 Recent precip. - - - - - -
 
Date/Time
EDT
Temp
°C
Wind Pressure Rain since
9am
mm
Weather Cloud Vis
km
Sea
Height
m
Swell
Dir  Spd
kts
Gust
kts
hPa Trend Height
m
Period
s
Dir
22/11:30pm 12.7 WSW 2 3 1018.2 - 1.0 - - - - - - -
22/11:00pm 12.9 W 2 4 1018.1 - 0.8 - - - - - - -
22/10:30pm 13.1 W 3 5 1017.9 - 0.8 - - - - - - -
22/10:00pm 13.3 WNW 2 3 1017.8 - 0.8 - - - - - - -
22/09:30pm 13.4 W 3 6 1017.8 - 0.8 - - - - - - -
22/09:00pm 13.4 W 3 5 1017.4 - 0.8 - - - - - - -
22/08:30pm 13.4 W 2 3 1017.1 - 0.8 - - - - - - -
22/08:00pm 13.5 SW 3 4 1016.8 - 0.8 - - - - - - -
22/07:30pm 13.6 SW 4 5 1016.4 - 0.8 - - - - - - -
22/07:00pm 14.0 SW 6 9 1016.1 - 0.8 - - - - - - -
22/06:30pm 14.7 SW 6 8 1015.9 - 0.8 - - - - - - -
22/06:00pm 14.6 W 5 10 1015.7 - 0.8 - - - - - - -
22/05:30pm 14.7 WSW 8 12 1015.4 - 0.8 - - - - - - -
22/05:00pm 15.1 W 7 10 1015.3 - 0.8 - - - - - - -
22/04:30pm 15.1 W 7 10 1015.1 - 0.8 - - - - - - -
22/04:00pm 15.0 WNW 6 9 1015.1 - 0.8 - - - - - - -
22/03:30pm 14.6 WNW 8 12 1015.2 - 0.8 - - - - - - -
22/03:00pm 14.9 W 7 10 1015.3 - 0.8 - - - - - - -
22/02:30pm 14.7 W 7 11 1015.6 - 0.8 - - - - - - -
22/02:00pm 14.4 SW 4 7 1015.6 - 0.8 - - - - - - -
22/01:30pm 13.9 W 4 7 1015.8 - 0.8 - - - - - - -
22/01:00pm 13.8 WNW 4 6 1015.9 - 0.6 - - - - - - -
22/12:30pm 12.8 WNW 4 7 1016.2 - 0.6 - - - - - - -
22/12:00pm 14.6 WSW 4 6 1016.2 - 0.0 - - - - - - -
22/11:30am 13.4 W 5 7 1016.5 - 0.0 - - - - - - -
22/11:00am 13.2 W 6 11 1016.7 - 0.0 - - - - - - -
22/10:30am 13.6 W 9 14 1016.6 - 0.0 - - - - - - -
22/10:00am 13.6 W 7 12 1016.7 - 0.0 - - - - - - -
22/09:30am 12.9 W 6 10 1016.8 - 0.0 - - - - - - -
22/09:00am 12.5 NW 4 8 1016.5 - 0.0 - - - - - - -
22/08:30am 12.3 WNW 6 11 1016.5 - 0.0 - - - - - - -
22/08:00am 11.8 WNW 6 9 1016.5 - 0.0 - - - - - - -
22/07:30am 11.6 WNW 5 9 1016.5 - 0.0 - - - - - - -
22/07:00am 11.2 WNW 7 15 1016.3 - 0.0 - - - - - - -
22/06:30am 11.2 NW 5 8 1016.1 - 0.0 - - - - - - -
22/06:00am 11.2 WNW 5 8 1016.1 - 0.0 - - - - - - -
22/05:30am 11.1 NW 6 9 1015.8 - 0.0 - - - - - - -
22/05:00am 11.0 NW 5 9 1016.2 - 0.0 - - - - - - -
22/04:30am 11.0 NW 5 7 1016.4 - 0.0 - - - - - - -
22/04:00am 11.0 WNW 6 10 1016.7 - 0.0 - - - - - - -
22/03:30am 11.0 WNW 6 9 1016.9 - 0.0 - - - - - - -
22/03:00am 11.1 WNW 6 10 1017.1 - 0.0 - - - - - - -
22/02:30am 11.0 WNW 6 10 1017.5 - 0.0 - - - - - - -
22/02:00am 11.2 WNW 6 10 1017.8 - 0.0 - - - - - - -
22/01:30am 11.2 WNW 5 8 1018.2 - 0.0 - - - - - - -
22/01:00am 11.3 WNW 6 10 1018.6 - 0.0 - - - - - - -
22/12:30am 11.3 NW 5 10 1018.9 - 0.0 - - - - - - -
22/12:00am 11.2 WNW 6 9 1019.2 - 0.0 - - - - - - -
 
Date/Time
EDT
Temp
°C
Wind Pressure Rain since
9am
mm
Weather Cloud Vis
km
Sea
Height
m
Swell
Dir  Spd
kts
Gust
kts
hPa Trend Height
m
Period
s
Dir
21/11:30pm 10.6 WNW 5 7 1019.4 - 0.0 - - - - - - -
21/11:00pm 11.0 WNW 5 8 1019.4 - 0.0 - - - - - - -
21/10:30pm 11.6 NW 5 10 1019.5 - 0.0 - - - - - - -
21/10:00pm 10.9 NNW 4 5 1019.7 - 0.0 - - - - - - -
21/09:30pm 12.1 NW 2 3 1019.9 - 0.0 - - - - - - -
21/09:00pm 12.5 W 2 4 1019.9 - 0.0 - - - - - - -
21/08:30pm 12.7 WSW 6 10 1019.9 - 0.0 - - - - - - -
21/08:00pm 12.6 W 2 2 1019.9 - 0.0 - - - - - - -
21/07:30pm 12.8 WSW 3 5 1019.9 - 0.0 - - - - - - -
21/07:00pm 12.8 SW 6 9 1019.8 - 0.0 - - - - - - -
21/06:30pm 13.1 SSW 6 9 1019.8 - 0.0 - - - - - - -
21/06:00pm 13.5 SW 7 9 1019.8 - 0.0 - - - - - - -
21/05:30pm 14.2 SSW 7 12 1019.9 - 0.0 - - - - - - -
21/05:00pm 14.3 SSW 6 10 1019.9 - 0.0 - - - - - - -
21/04:30pm 13.9 SSW 7 12 1020.0 - 0.0 - - - - - - -
21/04:00pm 14.8 SW 7 11 1020.2 - 0.0 - - - - - - -
21/03:30pm 15.4 SW 7 10 1020.3 - 0.0 - - - - - - -
21/03:00pm 15.8 W 7 13 1020.6 - 0.0 - - - - - - -
21/02:30pm 15.5 WSW 6 10 1021.1 - 0.0 - - - - - - -
21/02:00pm 14.7 W 8 12 1021.4 - 0.0 - - - - - - -
21/01:30pm 14.8 WSW 8 13 1021.8 - 0.0 - - - - - - -
21/01:00pm 14.1 W 9 14 1022.2 - 0.0 - - - - - - -
21/12:30pm 14.0 W 8 12 1022.6 - 0.0 - - - - - - -
21/12:00pm 13.8 W 7 13 1023.2 - 0.0 - - - - - - -
21/11:30am 13.2 W 8 13 1023.6 - 0.0 - - - - - - -
21/11:00am 12.8 W 7 11 1024.0 - 0.0 - - - - - - -
21/10:30am 12.5 WNW 7 11 1024.5 - 0.0 - - - - - - -
21/10:00am 12.1 W 7 11 1024.4 - 0.0 - - - - - - -
21/09:30am 11.7 WNW 8 11 1024.6 - 0.0 - - - - - - -
21/09:00am 11.5 WNW 7 10 1024.8 - 0.0 - - - - - - -
21/08:30am 11.3 WNW 7 12 1024.8 - 0.0 - - - - - - -
21/08:00am 11.1 WNW 7 11 1024.7 - 0.0 - - - - - - -
21/07:30am 10.7 WNW 5 8 1024.9 - 0.0 - - - - - - -
21/07:00am 10.5 WNW 5 9 1024.9 - 0.0 - - - - - - -
21/06:30am 10.5 WNW 6 9 1024.7 - 0.0 - - - - - - -
21/06:00am 10.5 WNW 5 9 1024.6 - 0.0 - - - - - - -
21/05:30am 10.4 WNW 6 10 1024.7 - 0.0 - - - - - - -
21/05:00am 10.3 NW 5 8 1024.6 - 0.0 - - - - - - -
21/04:30am 10.1 NW 6 9 1024.8 - 0.0 - - - - - - -
21/04:00am 10.1 NW 5 7 1024.9 - 0.0 - - - - - - -
21/03:30am 10.3 WNW 5 7 1025.4 - 0.0 - - - - - - -
21/03:00am 10.4 WNW 5 9 1025.6 - 0.0 - - - - - - -
21/02:30am 10.4 WNW 4 7 1025.8 - 0.0 - - - - - - -

Other Formats:

Comma delimited format used in spreadsheet applications
http://www.bom.gov.au/fwo/IDV60701/IDV60701.95918.axf

JavaScript Object Notation format (JSON) in row-major order
http://www.bom.gov.au/fwo/IDV60701/IDV60701.95918.json